Time;durP1;ratioP1;P1;durP2;ratioP2;P2;SDS_P1;SDS_P2;PMS_P1;PMS_P2;Temp;Humidity;BMP_temperature;BMP_pressure;BME280_temperature;BME280_humidity;BME280_pressure;Samples;Min_cycle;Max_cycle;Signal;HPM_P1;HPM_P2
2021/01/18 00:02:13;;;;;;;1.55;1.20;;;5.10;83.20;;;;;;5098594;28;20043;-65
2021/01/18 00:04:38;;;;;;;17.65;1.83;;;5.10;83.30;;;;;;5106085;28;20032;-65
2021/01/18 00:07:05;;;;;;;14.60;1.75;;;5.10;83.30;;;;;;5095238;28;20039;-65
2021/01/18 00:09:31;;;;;;;1.33;1.23;;;5.10;83.90;;;;;;5095338;28;20107;-65
2021/01/18 00:11:56;;;;;;;4.47;1.10;;;5.10;83.20;;;;;;5094699;28;20119;-64
2021/01/18 00:14:22;;;;;;;3.63;1.60;;;5.10;83.20;;;;;;5094923;28;20436;-64
2021/01/18 00:16:48;;;;;;;1.13;0.88;;;5.20;83.20;;;;;;5094884;28;20035;-65
2021/01/18 00:19:13;;;;;;;2.40;1.38;;;5.20;83.10;;;;;;5094545;28;20038;-65
2021/01/18 00:21:46;;;;;;;0.82;0.82;;;5.10;83.00;;;;;;5094889;28;20028;-65
2021/01/18 00:24:13;;;;;;;2.33;1.13;;;5.10;83.00;;;;;;5094689;28;20027;-65
2021/01/18 00:26:39;;;;;;;1.40;1.17;;;5.10;83.00;;;;;;5094450;28;20028;-65
2021/01/18 00:29:05;;;;;;;6.47;1.55;;;5.10;83.00;;;;;;5094755;28;20491;-64
2021/01/18 00:31:30;;;;;;;1.40;0.70;;;5.10;83.00;;;;;;5094449;28;20044;-65
2021/01/18 00:33:56;;;;;;;5.57;1.48;;;5.10;83.00;;;;;;5094999;28;20357;-65
2021/01/18 00:36:21;;;;;;;5.10;2.10;;;5.10;83.60;;;;;;5094728;28;20062;-65
2021/01/18 00:38:47;;;;;;;2.75;0.85;;;5.10;83.00;;;;;;5094017;28;20046;-64
2021/01/18 00:41:13;;;;;;;2.20;1.08;;;5.10;82.90;;;;;;5094305;28;20489;-65
2021/01/18 00:43:38;;;;;;;4.15;1.85;;;5.10;82.90;;;;;;5094362;28;20024;-65
2021/01/18 00:46:04;;;;;;;7.25;1.85;;;5.10;82.90;;;;;;5093908;28;20060;-65
2021/01/18 00:48:29;;;;;;;2.28;0.80;;;5.00;82.90;;;;;;5094556;28;20529;-65
2021/01/18 00:50:55;;;;;;;6.07;2.83;;;5.00;83.00;;;;;;5094068;28;20035;-64
2021/01/18 00:53:21;;;;;;;1.88;1.17;;;5.00;83.00;;;;;;5096793;28;20027;-65
2021/01/18 00:55:47;;;;;;;3.30;1.60;;;5.00;83.00;;;;;;5102786;28;20077;-65
2021/01/18 00:58:39;;;;;;;1.10;1.10;;;5.00;83.00;;;;;;5092686;28;20046;-64
2021/01/18 01:01:27;;;;;;;4.03;1.63;;;5.00;83.00;;;;;;5093500;28;20433;-64
2021/01/18 01:03:53;;;;;;;1.48;1.38;;;5.00;83.00;;;;;;5092854;28;20027;-65
2021/01/18 01:06:19;;;;;;;0.60;0.60;;;5.00;83.10;;;;;;5093932;28;20024;-64
2021/01/18 01:08:44;;;;;;;2.08;1.00;;;5.00;83.10;;;;;;5093688;28;20158;-64
2021/01/18 01:11:10;;;;;;;15.77;3.33;;;5.00;83.00;;;;;;5093977;28;20118;-64
2021/01/18 01:13:35;;;;;;;0.43;0.43;;;5.00;83.10;;;;;;5093683;28;20488;-64
2021/01/18 01:16:01;;;;;;;1.08;0.93;;;5.00;83.20;;;;;;5093747;28;20039;-65
2021/01/18 01:18:27;;;;;;;6.38;1.05;;;4.90;83.20;;;;;;5093694;28;20032;-65
2021/01/18 01:20:52;;;;;;;0.63;0.63;;;4.90;83.10;;;;;;5093206;28;20074;-64
2021/01/18 01:23:18;;;;;;;11.70;0.95;;;4.90;83.10;;;;;;5093821;28;20116;-64
2021/01/18 01:25:44;;;;;;;3.05;1.48;;;4.90;83.10;;;;;;5093489;28;20086;-64
2021/01/18 01:28:09;;;;;;;4.72;1.27;;;4.90;83.10;;;;;;5093362;28;20030;-64
2021/01/18 01:30:35;;;;;;;2.72;1.33;;;4.90;83.10;;;;;;5093741;28;20460;-65
2021/01/18 01:33:01;;;;;;;16.60;1.60;;;4.90;83.10;;;;;;5093317;28;20434;-65
2021/01/18 01:35:27;;;;;;;6.93;2.40;;;4.90;83.10;;;;;;5093085;28;20472;-64
2021/01/18 01:37:54;;;;;;;6.35;1.02;;;4.90;83.10;;;;;;5093599;28;20073;-64
2021/01/18 01:40:21;;;;;;;4.22;0.88;;;4.90;83.10;;;;;;5093507;28;20107;-64
2021/01/18 01:42:47;;;;;;;8.60;1.88;;;4.90;83.10;;;;;;5092558;28;20146;-64
2021/01/18 01:45:15;;;;;;;1.33;0.40;;;4.90;83.20;;;;;;5093527;28;20032;-65
2021/01/18 01:47:44;;;;;;;9.13;3.03;;;4.80;83.10;;;;;;5093276;28;20103;-64
2021/01/18 01:50:20;;;;;;;1.33;1.05;;;4.90;83.10;;;;;;5092366;28;20035;-65
2021/01/18 01:52:55;;;;;;;8.43;2.00;;;4.90;83.10;;;;;;5093445;28;20040;-64
2021/01/18 01:55:32;;;;;;;4.97;1.48;;;4.90;83.10;;;;;;5092959;28;20065;-64
2021/01/18 01:57:59;;;;;;;2.35;1.08;;;4.90;83.10;;;;;;5092942;28;20059;-64
2021/01/18 02:00:36;;;;;;;8.32;2.13;;;4.90;82.90;;;;;;5092821;28;20028;-64
2021/01/18 02:03:03;;;;;;;6.95;1.30;;;4.90;82.90;;;;;;5092657;28;20032;-65
2021/01/18 02:05:28;;;;;;;5.43;1.30;;;4.90;82.70;;;;;;5093100;28;20055;-65
2021/01/18 02:07:58;;;;;;;1.48;1.20;;;4.90;83.20;;;;;;5093076;28;20414;-64
2021/01/18 02:10:24;;;;;;;15.13;1.35;;;4.90;82.60;;;;;;5092408;28;20084;-65
2021/01/18 02:12:50;;;;;;;3.50;1.10;;;4.90;82.60;;;;;;5093001;28;20443;-64
2021/01/18 02:15:44;;;;;;;4.25;1.02;;;4.90;82.60;;;;;;5092675;28;20043;-64
2021/01/18 02:18:36;;;;;;;2.75;1.25;;;4.90;82.70;;;;;;5092461;28;20052;-64
2021/01/18 02:21:21;;;;;;;0.40;0.40;;;4.90;82.60;;;;;;5092762;28;20081;-64
2021/01/18 02:24:05;;;;;;;14.43;2.72;;;4.80;82.60;;;;;;5093183;28;20028;-64
2021/01/18 02:26:54;;;;;;;12.70;1.23;;;4.80;82.70;;;;;;5092933;28;20394;-64
2021/01/18 02:29:36;;;;;;;0.75;0.73;;;4.80;82.70;;;;;;5092550;28;20415;-64
2021/01/18 02:32:36;;;;;;;7.70;1.77;;;4.80;82.90;;;;;;5092477;28;20040;-64
2021/01/18 02:35:04;;;;;;;3.38;1.27;;;4.80;83.00;;;;;;5092984;28;20066;-64
2021/01/18 02:37:39;;;;;;;6.00;1.98;;;4.70;83.00;;;;;;5092704;28;20035;-64
2021/01/18 02:40:08;;;;;;;4.63;1.77;;;4.70;83.20;;;;;;5092234;28;20449;-65
2021/01/18 02:42:46;;;;;;;3.55;1.38;;;4.70;83.40;;;;;;5092287;28;20101;-64
2021/01/18 02:45:12;;;;;;;9.27;1.60;;;4.70;83.50;;;;;;5092388;28;20035;-64
2021/01/18 02:47:43;;;;;;;3.63;1.10;;;4.70;83.50;;;;;;5092687;28;20032;-64
2021/01/18 02:50:09;;;;;;;1.52;1.30;;;4.70;83.60;;;;;;5092304;28;20028;-64
2021/01/18 02:52:42;;;;;;;5.45;1.67;;;4.70;83.50;;;;;;5091897;28;20494;-64
2021/01/18 02:55:09;;;;;;;2.60;1.23;;;4.70;83.50;;;;;;5092532;28;20031;-65
2021/01/18 02:57:39;;;;;;;1.23;1.02;;;4.70;83.50;;;;;;5092486;28;20065;-64
2021/01/18 03:00:11;;;;;;;5.15;2.38;;;4.70;83.60;;;;;;5092468;28;20105;-64
2021/01/18 03:02:47;;;;;;;9.30;1.45;;;4.70;83.80;;;;;;5096673;28;20051;-64
2021/01/18 03:05:29;;;;;;;3.83;1.15;;;4.70;83.70;;;;;;5096218;28;20046;-64
2021/01/18 03:08:19;;;;;;;1.75;0.93;;;4.60;83.70;;;;;;5096184;28;20055;-64
2021/01/18 03:11:01;;;;;;;1.00;0.63;;;4.60;83.80;;;;;;5096130;28;20084;-64
2021/01/18 03:13:33;;;;;;;11.35;1.92;;;4.60;84.00;;;;;;5095865;28;20074;-64
2021/01/18 03:16:11;;;;;;;0.65;0.65;;;4.60;84.00;;;;;;5096100;28;20073;-64
2021/01/18 03:18:39;;;;;;;5.78;1.67;;;4.60;84.00;;;;;;5096248;28;20028;-64
2021/01/18 03:21:05;;;;;;;4.28;1.52;;;4.60;84.10;;;;;;5095452;28;20035;-64
2021/01/18 03:23:31;;;;;;;1.75;1.58;;;4.60;84.10;;;;;;5096150;28;20077;-64
2021/01/18 03:25:57;;;;;;;1.25;1.20;;;4.60;84.10;;;;;;5095656;28;20028;-64
2021/01/18 03:28:24;;;;;;;4.30;1.75;;;4.60;84.20;;;;;;5095775;28;20103;-64
2021/01/18 03:30:50;;;;;;;4.80;0.70;;;4.60;84.20;;;;;;5095752;28;20118;-64
2021/01/18 03:33:17;;;;;;;8.48;1.58;;;4.60;84.10;;;;;;5095803;28;20057;-64
2021/01/18 03:35:43;;;;;;;1.58;1.42;;;4.70;84.10;;;;;;5095423;28;20042;-64
2021/01/18 03:38:10;;;;;;;5.28;0.98;;;4.60;84.00;;;;;;5095739;28;20399;-64
2021/01/18 03:40:37;;;;;;;1.05;1.05;;;4.60;83.90;;;;;;5097883;28;20032;-64
2021/01/18 03:43:06;;;;;;;0.47;0.47;;;4.60;83.90;;;;;;5113484;28;20126;-64
2021/01/18 03:45:35;;;;;;;3.00;1.38;;;4.70;83.90;;;;;;5098179;28;20063;-64
2021/01/18 03:48:01;;;;;;;9.18;1.70;;;4.70;83.90;;;;;;5106944;28;20552;-64
2021/01/18 03:50:26;;;;;;;10.88;1.33;;;4.70;83.90;;;;;;5095121;28;20051;-64
2021/01/18 03:52:53;;;;;;;2.70;1.13;;;4.70;83.90;;;;;;5095209;28;20058;-64
2021/01/18 03:55:19;;;;;;;1.10;0.98;;;4.70;83.90;;;;;;5094964;28;20382;-64
2021/01/18 03:57:50;;;;;;;3.85;1.70;;;4.70;83.90;;;;;;5095482;28;20475;-64
2021/01/18 04:00:17;;;;;;;1.42;1.13;;;4.70;84.00;;;;;;5095153;28;20097;-64
2021/01/18 04:02:45;;;;;;;0.88;0.60;;;4.70;84.00;;;;;;5095063;28;20028;-64
2021/01/18 04:05:11;;;;;;;4.85;1.75;;;4.70;84.10;;;;;;5095266;28;20054;-64
2021/01/18 04:07:37;;;;;;;1.45;0.60;;;4.70;84.00;;;;;;5095065;28;20067;-64
2021/01/18 04:10:04;;;;;;;5.25;0.90;;;4.70;84.00;;;;;;5094794;28;20059;-64
2021/01/18 04:12:29;;;;;;;8.20;1.73;;;4.70;84.10;;;;;;5094630;28;20040;-64
2021/01/18 04:14:55;;;;;;;2.40;1.10;;;4.70;84.10;;;;;;5095132;28;20081;-64
2021/01/18 04:17:21;;;;;;;1.95;0.98;;;4.70;84.20;;;;;;5094373;28;20036;-64
2021/01/18 04:19:46;;;;;;;1.40;0.82;;;4.70;84.20;;;;;;5095170;28;20026;-64
2021/01/18 04:22:12;;;;;;;0.93;0.93;;;4.70;84.20;;;;;;5094618;28;20399;-64
2021/01/18 04:24:38;;;;;;;7.82;2.10;;;4.70;84.20;;;;;;5103464;28;20080;-64
2021/01/18 04:27:06;;;;;;;1.77;0.73;;;4.70;84.20;;;;;;5100498;28;20145;-64
2021/01/18 04:29:32;;;;;;;1.00;0.68;;;4.70;84.10;;;;;;5094784;28;20039;-64
2021/01/18 04:31:58;;;;;;;0.40;0.40;;;4.70;84.20;;;;;;5094314;28;20399;-64
2021/01/18 04:34:23;;;;;;;3.85;1.75;;;4.60;84.20;;;;;;5094751;28;20110;-64
2021/01/18 04:36:49;;;;;;;8.60;1.73;;;4.70;84.30;;;;;;5094451;28;20109;-64
2021/01/18 04:39:15;;;;;;;3.20;1.45;;;4.70;84.30;;;;;;5094262;28;20043;-64
2021/01/18 04:41:42;;;;;;;8.95;2.78;;;4.70;84.20;;;;;;5094726;28;20063;-64
2021/01/18 04:44:13;;;;;;;0.50;0.50;;;4.70;84.20;;;;;;5094563;28;20032;-64
2021/01/18 04:46:46;;;;;;;2.38;0.88;;;4.70;84.20;;;;;;5094084;28;20032;-64
2021/01/18 04:49:14;;;;;;;0.77;0.75;;;4.70;84.10;;;;;;5094111;28;20471;-65
2021/01/18 04:51:44;;;;;;;4.47;0.70;;;4.70;84.10;;;;;;5093941;28;20036;-64
2021/01/18 04:54:37;;;;;;;3.42;2.15;;;4.70;84.10;;;;;;5094444;28;20502;-64
2021/01/18 04:57:20;;;;;;;6.72;1.25;;;4.80;84.10;;;;;;5094215;28;20035;-65
2021/01/18 04:59:47;;;;;;;6.90;1.30;;;4.70;84.10;;;;;;5093691;28;20027;-64
2021/01/18 05:02:21;;;;;;;7.80;1.42;;;4.80;84.10;;;;;;5094200;28;20038;-64
2021/01/18 05:04:49;;;;;;;8.82;2.00;;;4.80;84.20;;;;;;5093905;28;20127;-64
2021/01/18 05:07:35;;;;;;;5.75;1.70;;;4.70;84.20;;;;;;5093619;28;20469;-64
2021/01/18 05:10:08;;;;;;;0.85;0.77;;;4.80;84.30;;;;;;5052544;28;20043;-64
2021/01/18 05:12:39;;;;;;;2.53;1.35;;;4.70;84.30;;;;;;5094130;28;20062;-64
2021/01/18 05:15:12;;;;;;;5.18;2.28;;;4.80;84.50;;;;;;5107939;28;20028;-64
2021/01/18 05:17:49;;;;;;;5.15;1.40;;;4.70;84.40;;;;;;5093991;28;20085;-64
2021/01/18 05:20:19;;;;;;;6.38;2.10;;;4.70;84.50;;;;;;5093334;28;20041;-64
2021/01/18 05:22:48;;;;;;;2.92;1.08;;;4.70;84.60;;;;;;5093769;28;20059;-65
2021/01/18 05:25:14;;;;;;;9.98;2.15;;;4.70;84.70;;;;;;5092691;28;20024;-64
2021/01/18 05:28:00;;;;;;;4.50;1.85;;;4.70;84.90;;;;;;5093458;28;20077;-64
2021/01/18 05:30:28;;;;;;;4.70;1.88;;;4.70;84.90;;;;;;5093521;28;20078;-64
2021/01/18 05:33:05;;;;;;;2.15;1.95;;;4.70;84.90;;;;;;5093426;28;20075;-64
2021/01/18 05:35:32;;;;;;;8.75;1.00;;;4.80;85.00;;;;;;5092940;28;20425;-64
2021/01/18 05:37:59;;;;;;;2.42;1.55;;;4.70;84.90;;;;;;5093528;28;20032;-64
2021/01/18 05:40:26;;;;;;;4.47;1.75;;;4.80;85.00;;;;;;5093539;28;20038;-64
2021/01/18 05:42:52;;;;;;;0.82;0.73;;;4.80;85.00;;;;;;5092859;28;20406;-64
2021/01/18 05:45:47;;;;;;;4.53;1.67;;;4.80;85.00;;;;;;5093643;28;20107;-65
2021/01/18 05:48:25;;;;;;;4.22;1.33;;;4.80;85.10;;;;;;5076150;28;20054;-65
2021/01/18 05:50:57;;;;;;;6.72;2.75;;;4.80;85.10;;;;;;5093170;28;20031;-64
2021/01/18 05:53:26;;;;;;;12.50;2.53;;;4.80;85.20;;;;;;5093058;28;20483;-64
2021/01/18 05:55:51;;;;;;;15.73;2.70;;;4.80;85.30;;;;;;5092823;28;20032;-64
2021/01/18 05:58:31;;;;;;;13.48;2.65;;;4.80;85.50;;;;;;5093071;28;20032;-64
2021/01/18 06:00:59;;;;;;;7.63;1.38;;;4.80;85.60;;;;;;5093244;28;20038;-63
2021/01/18 06:03:31;;;;;;;4.93;1.92;;;4.80;85.70;;;;;;5092061;28;20534;-64
2021/01/18 06:05:59;;;;;;;11.70;2.30;;;4.80;85.80;;;;;;5112300;28;20036;-64
2021/01/18 06:08:26;;;;;;;4.38;1.92;;;4.80;85.90;;;;;;5111592;28;20057;-64
2021/01/18 06:10:53;;;;;;;6.75;2.30;;;4.80;86.00;;;;;;5111645;28;20395;-64
2021/01/18 06:13:24;;;;;;;11.88;2.42;;;4.80;86.00;;;;;;5108013;28;20052;-64
2021/01/18 06:16:10;;;;;;;9.15;2.25;;;4.80;86.00;;;;;;5105326;28;20552;-65
2021/01/18 06:18:38;;;;;;;4.82;1.70;;;4.90;86.10;;;;;;5103852;28;20492;-65
2021/01/18 06:21:06;;;;;;;10.10;2.90;;;4.90;86.10;;;;;;5109710;28;20023;-65
2021/01/18 06:23:34;;;;;;;11.43;2.92;;;4.90;86.20;;;;;;5107475;28;20164;-64
2021/01/18 06:26:02;;;;;;;1.17;1.08;;;4.90;86.30;;;;;;5099410;28;20525;-64
2021/01/18 06:28:32;;;;;;;3.88;2.17;;;4.90;86.30;;;;;;5102250;28;20031;-64
2021/01/18 06:31:02;;;;;;;3.35;1.58;;;4.90;86.30;;;;;;5105848;28;20016;-65
2021/01/18 06:33:48;;;;;;;2.72;1.60;;;4.90;86.30;;;;;;5109051;28;20118;-65
2021/01/18 06:36:17;;;;;;;10.30;2.15;;;5.00;86.30;;;;;;5113949;28;20446;-65
2021/01/18 06:38:48;;;;;;;4.57;1.98;;;5.00;86.30;;;;;;5116701;28;20035;-64
2021/01/18 06:41:22;;;;;;;8.48;1.98;;;5.00;86.50;;;;;;5114315;27;20031;-65
2021/01/18 06:43:49;;;;;;;4.10;1.25;;;5.00;86.60;;;;;;5114031;27;20030;-65
2021/01/18 06:46:21;;;;;;;6.53;1.08;;;5.00;86.60;;;;;;5114976;28;20063;-65
2021/01/18 06:48:49;;;;;;;10.60;2.55;;;5.00;86.70;;;;;;5115541;27;20463;-65
2021/01/18 06:51:18;;;;;;;12.35;2.90;;;5.00;86.80;;;;;;5113818;28;20044;-65
2021/01/18 06:53:45;;;;;;;8.13;3.10;;;5.00;86.80;;;;;;5115883;27;20027;-65
2021/01/18 06:56:22;;;;;;;14.65;2.58;;;5.10;86.90;;;;;;5115602;27;20039;-65
2021/01/18 06:58:51;;;;;;;10.27;2.50;;;5.10;86.90;;;;;;5114741;28;20023;-64
2021/01/18 07:01:45;;;;;;;6.70;3.08;;;5.10;86.90;;;;;;5114341;28;20057;-64
2021/01/18 07:04:12;;;;;;;7.22;2.33;;;5.10;87.00;;;;;;5115558;27;20087;-65
2021/01/18 07:06:41;;;;;;;9.90;2.28;;;5.10;87.00;;;;;;5113307;27;20106;-65
2021/01/18 07:09:08;;;;;;;11.48;2.40;;;5.10;87.10;;;;;;5111472;28;20028;-65
2021/01/18 07:11:34;;;;;;;2.60;1.65;;;5.10;87.20;;;;;;5115579;28;20039;-65
2021/01/18 07:14:04;;;;;;;5.50;1.70;;;5.20;87.30;;;;;;5114911;27;20052;-65
2021/01/18 07:16:30;;;;;;;4.95;1.88;;;5.10;87.30;;;;;;5116237;27;20483;-65
2021/01/18 07:19:00;;;;;;;26.50;4.00;;;5.20;87.30;;;;;;5116721;27;20027;-64
2021/01/18 07:21:29;;;;;;;5.25;2.17;;;5.20;87.40;;;;;;5114782;28;20471;-65
2021/01/18 07:23:57;;;;;;;5.75;2.22;;;5.20;87.50;;;;;;5116544;27;20417;-65
2021/01/18 07:26:42;;;;;;;5.55;2.55;;;5.20;87.50;;;;;;5113638;27;20069;-65
2021/01/18 07:29:08;;;;;;;10.43;3.20;;;5.20;87.60;;;;;;5114466;27;20470;-62
2021/01/18 07:31:36;;;;;;;17.27;2.80;;;5.20;87.60;;;;;;5112852;27;20034;-64
2021/01/18 07:34:03;;;;;;;5.28;1.95;;;5.20;87.70;;;;;;5114874;27;20092;-66
2021/01/18 07:36:31;;;;;;;11.00;3.05;;;5.20;87.80;;;;;;5113789;27;20149;-66
2021/01/18 07:38:57;;;;;;;10.48;3.00;;;5.20;87.80;;;;;;5108855;27;20031;-65
2021/01/18 07:41:36;;;;;;;11.75;2.78;;;5.20;87.90;;;;;;5114069;27;20040;-66
2021/01/18 07:44:04;;;;;;;8.65;2.83;;;5.30;88.10;;;;;;5113178;27;20046;-66
2021/01/18 07:46:29;;;;;;;7.97;2.47;;;5.20;88.10;;;;;;5114484;28;20023;-66
2021/01/18 07:48:59;;;;;;;15.98;1.90;;;5.20;88.20;;;;;;5110831;28;20481;-67
2021/01/18 07:51:28;;;;;;;9.68;2.45;;;5.30;88.30;;;;;;5110293;27;20513;-65
2021/01/18 07:53:54;;;;;;;4.63;2.13;;;5.30;88.30;;;;;;5112515;28;20047;-64
2021/01/18 07:56:27;;;;;;;10.02;2.72;;;5.30;88.30;;;;;;5105047;28;20100;-64
2021/01/18 07:59:04;;;;;;;9.40;2.72;;;5.30;88.30;;;;;;5101847;28;20023;-65
2021/01/18 08:01:30;;;;;;;6.63;1.88;;;5.30;88.30;;;;;;5100515;28;20071;-64
2021/01/18 08:04:21;;;;;;;3.88;2.08;;;5.40;88.30;;;;;;5104655;28;20058;-65
2021/01/18 08:07:09;;;;;;;9.07;2.75;;;5.30;88.30;;;;;;5103738;28;20107;-65
2021/01/18 08:09:36;;;;;;;8.48;3.38;;;5.40;88.40;;;;;;5095544;28;20032;-65
2021/01/18 08:12:36;;;;;;;7.35;2.80;;;5.40;88.50;;;;;;5103632;28;20046;-65
2021/01/18 08:15:07;;;;;;;10.40;3.58;;;5.40;88.60;;;;;;5108652;28;20036;-65
2021/01/18 08:17:34;;;;;;;6.22;2.75;;;5.40;88.70;;;;;;5113658;28;20027;-65
2021/01/18 08:20:16;;;;;;;4.38;2.40;;;5.40;88.70;;;;;;5112844;28;20032;-65
2021/01/18 08:22:42;;;;;;;8.25;3.30;;;5.40;88.80;;;;;;5105328;28;20042;-66
2021/01/18 08:25:09;;;;;;;13.57;3.85;;;5.40;88.90;;;;;;5102643;28;20030;-65
2021/01/18 08:27:54;;;;;;;7.05;2.50;;;5.40;88.90;;;;;;5100599;28;20020;-63
2021/01/18 08:30:33;;;;;;;17.45;4.15;;;5.40;89.00;;;;;;5097896;28;20421;-64
2021/01/18 08:33:00;;;;;;;13.82;3.88;;;5.50;89.00;;;;;;5099700;28;20093;-64
2021/01/18 08:35:30;;;;;;;10.50;3.80;;;5.50;89.00;;;;;;5107941;28;20543;-64
2021/01/18 08:38:06;;;;;;;11.48;4.10;;;5.50;89.10;;;;;;5109576;28;20035;-64
2021/01/18 08:40:45;;;;;;;13.25;4.50;;;5.50;89.20;;;;;;5104581;28;20031;-65
2021/01/18 08:43:15;;;;;;;7.55;3.03;;;5.50;89.20;;;;;;5103501;28;20048;-64
2021/01/18 08:45:45;;;;;;;12.38;4.22;;;5.50;89.20;;;;;;5104448;28;20040;-64
2021/01/18 08:48:13;;;;;;;3.20;2.08;;;5.60;89.40;;;;;;5104419;28;20035;-64
2021/01/18 08:50:46;;;;;;;13.90;3.92;;;5.50;89.40;;;;;;5097783;28;20050;-64
2021/01/18 08:53:26;;;;;;;;;;;5.60;89.50;;;;;;5104677;28;20047;-64
2021/01/18 08:55:54;;;;;;;17.98;3.88;;;5.60;89.40;;;;;;5093409;28;19911;-64
2021/01/18 08:58:40;;;;;;;13.63;3.88;;;5.60;89.40;;;;;;5092397;28;20032;-64
2021/01/18 09:01:10;;;;;;;9.27;3.60;;;5.60;89.70;;;;;;5093495;28;20437;-64
2021/01/18 09:03:35;;;;;;;8.48;3.47;;;5.60;89.80;;;;;;5099650;28;20035;-64
2021/01/18 09:06:01;;;;;;;14.38;5.05;;;5.60;89.80;;;;;;5094675;28;20403;-64
2021/01/18 09:08:28;;;;;;;9.45;2.92;;;5.60;89.80;;;;;;5093035;28;20028;-64
2021/01/18 09:10:58;;;;;;;10.88;3.33;;;5.60;89.90;;;;;;5093086;28;20032;-64
2021/01/18 09:13:26;;;;;;;12.75;3.70;;;5.60;89.80;;;;;;5092215;28;20024;-64
2021/01/18 09:15:52;;;;;;;14.23;4.50;;;5.70;89.90;;;;;;5092910;28;20077;-66
2021/01/18 09:18:19;;;;;;;7.60;3.50;;;5.70;89.80;;;;;;5093074;28;20036;-65
2021/01/18 09:20:45;;;;;;;10.13;2.90;;;5.80;89.80;;;;;;5092275;28;20093;-66
2021/01/18 09:23:13;;;;;;;4.57;2.55;;;5.80;89.80;;;;;;5102498;28;20034;-64
2021/01/18 09:25:39;;;;;;;10.68;4.05;;;5.80;89.80;;;;;;5111646;28;20030;-65
2021/01/18 09:28:11;;;;;;;12.23;3.90;;;5.80;90.20;;;;;;5110617;28;20455;-65
2021/01/18 09:30:42;;;;;;;6.03;2.28;;;5.90;89.80;;;;;;5105627;28;20102;-64
2021/01/18 09:33:10;;;;;;;17.77;3.38;;;5.90;89.80;;;;;;5109159;28;20482;-65
2021/01/18 09:35:44;;;;;;;9.50;3.00;;;5.90;89.80;;;;;;5109302;28;20106;-65
2021/01/18 09:38:10;;;;;;;;;;;5.90;89.80;;;;;;5110079;28;20030;-67
2021/01/18 09:40:41;;;;;;;12.85;3.72;;;5.90;89.90;;;;;;5107689;28;19912;-66
2021/01/18 09:43:07;;;;;;;9.13;3.58;;;5.90;89.90;;;;;;5107218;28;20044;-65
2021/01/18 09:45:34;;;;;;;7.90;3.05;;;5.90;90.00;;;;;;5106392;28;20031;-65
2021/01/18 09:48:03;;;;;;;7.95;3.88;;;5.90;90.00;;;;;;5107878;28;20039;-65
2021/01/18 09:50:29;;;;;;;14.00;3.63;;;6.00;90.10;;;;;;5092299;28;20454;-65
2021/01/18 09:52:54;;;;;;;13.35;3.55;;;6.00;90.20;;;;;;5103561;28;20119;-65
2021/01/18 09:55:23;;;;;;;9.40;3.00;;;6.00;90.10;;;;;;5091733;28;20111;-65
2021/01/18 09:58:00;;;;;;;19.17;3.20;;;6.00;90.20;;;;;;5092091;28;20024;-65
2021/01/18 10:00:29;;;;;;;16.98;4.32;;;6.00;90.20;;;;;;5100782;28;20419;-64
2021/01/18 10:02:58;;;;;;;6.72;2.58;;;6.10;90.20;;;;;;5096978;28;20032;-65
2021/01/18 10:05:28;;;;;;;8.70;2.40;;;6.10;90.30;;;;;;5099190;28;20039;-65
2021/01/18 10:07:55;;;;;;;10.20;2.92;;;6.10;90.30;;;;;;5098773;28;20028;-64
2021/01/18 10:10:21;;;;;;;15.48;4.03;;;6.10;90.30;;;;;;5097470;28;20102;-66
2021/01/18 10:12:52;;;;;;;15.63;3.00;;;6.20;90.30;;;;;;5104123;28;20134;-65
2021/01/18 10:15:27;;;;;;;9.98;3.03;;;6.20;90.40;;;;;;5098750;28;20081;-65
2021/01/18 10:17:56;;;;;;;10.57;3.42;;;6.20;90.40;;;;;;5102249;28;20032;-63
2021/01/18 10:20:30;;;;;;;10.27;3.22;;;6.30;90.50;;;;;;5099195;28;20027;-64
2021/01/18 10:22:57;;;;;;;12.55;3.70;;;6.30;90.50;;;;;;5102037;28;20024;-63
2021/01/18 10:25:28;;;;;;;14.55;3.25;;;6.30;90.60;;;;;;5108901;28;20032;-63
2021/01/18 10:27:55;;;;;;;14.63;3.58;;;6.30;90.70;;;;;;5111180;28;20111;-63
2021/01/18 10:30:25;;;;;;;15.45;3.10;;;6.30;90.70;;;;;;5096679;28;20027;-63
2021/01/18 10:32:52;;;;;;;12.38;3.47;;;6.30;90.80;;;;;;5093904;28;20502;-63
2021/01/18 10:35:27;;;;;;;17.83;4.30;;;6.30;90.90;;;;;;5095901;28;20364;-63
2021/01/18 10:37:53;;;;;;;11.05;2.95;;;6.30;91.00;;;;;;5093617;28;20044;-63
2021/01/18 10:40:22;;;;;;;10.13;3.70;;;6.30;91.00;;;;;;5095637;28;20472;-61
2021/01/18 10:42:53;;;;;;;9.63;2.60;;;6.40;91.10;;;;;;5093893;28;20083;-63
2021/01/18 10:45:24;;;;;;;12.63;3.38;;;6.40;91.20;;;;;;5093268;28;20059;-64
2021/01/18 10:48:00;;;;;;;20.48;3.50;;;6.30;91.30;;;;;;5093610;28;20032;-63
2021/01/18 10:50:30;;;;;;;17.45;3.85;;;6.40;91.40;;;;;;5093312;28;20032;-64
2021/01/18 10:53:01;;;;;;;15.68;3.50;;;6.40;91.40;;;;;;5102728;28;20040;-62
2021/01/18 10:55:27;;;;;;;9.13;2.92;;;6.40;91.50;;;;;;5091385;28;20043;-62
2021/01/18 10:57:53;;;;;;;10.02;3.38;;;6.40;91.60;;;;;;5091148;28;20053;-62
2021/01/18 11:00:27;;;;;;;10.43;3.30;;;6.40;91.70;;;;;;5091394;28;20028;-62
2021/01/18 11:03:00;;;;;;;8.15;2.67;;;6.40;91.80;;;;;;5091363;28;20055;-62
2021/01/18 11:05:27;;;;;;;;;;;6.50;91.80;;;;;;5091561;28;20047;-64
2021/01/18 11:07:52;;;;;;;9.25;2.50;;;6.50;91.80;;;;;;5097876;28;19943;-62
2021/01/18 11:10:25;;;;;;;20.10;3.58;;;6.50;91.80;;;;;;5105487;28;20819;-63
2021/01/18 11:13:03;;;;;;;14.05;3.75;;;6.50;91.90;;;;;;5106968;28;20043;-61
2021/01/18 11:15:36;;;;;;;14.05;3.65;;;6.50;92.00;;;;;;5110583;28;20027;-61
2021/01/18 11:18:03;;;;;;;13.43;3.00;;;6.50;92.00;;;;;;5100417;28;20426;-62
2021/01/18 11:20:31;;;;;;;12.85;2.35;;;6.50;92.10;;;;;;5094143;28;20404;-62
2021/01/18 11:22:57;;;;;;;9.68;2.78;;;6.50;92.10;;;;;;5096031;28;20031;-62
2021/01/18 11:25:23;;;;;;;12.40;2.67;;;6.60;92.10;;;;;;5099904;28;20036;-62
2021/01/18 11:27:49;;;;;;;6.25;2.58;;;6.60;92.00;;;;;;5097636;28;20024;-63
2021/01/18 11:30:15;;;;;;;13.38;3.53;;;6.60;92.00;;;;;;5102003;28;20031;-63
2021/01/18 11:32:42;;;;;;;14.32;3.60;;;6.60;92.00;;;;;;5112491;28;20054;-63
2021/01/18 11:35:10;;;;;;;12.18;2.80;;;6.70;92.10;;;;;;5101844;27;20036;-64
2021/01/18 11:37:36;;;;;;;9.93;2.45;;;6.70;92.00;;;;;;5095800;28;20467;-63
2021/01/18 11:40:05;;;;;;;12.60;2.50;;;6.80;92.10;;;;;;5095122;28;20035;-62
2021/01/18 11:42:33;;;;;;;8.10;2.35;;;6.80;92.00;;;;;;5107239;28;20035;-62
2021/01/18 11:44:59;;;;;;;6.82;2.58;;;6.80;92.00;;;;;;5113717;28;20059;-62
2021/01/18 11:47:32;;;;;;;10.68;2.65;;;6.80;92.00;;;;;;5111147;28;20065;-62
2021/01/18 11:49:58;;;;;;;13.00;2.50;;;6.80;92.00;;;;;;5106781;27;20027;-62
2021/01/18 11:52:23;;;;;;;8.93;2.22;;;6.80;92.20;;;;;;5105718;28;20402;-62
2021/01/18 11:54:49;;;;;;;12.52;2.30;;;6.90;91.90;;;;;;5108518;28;20048;-61
2021/01/18 11:57:14;;;;;;;11.27;2.25;;;6.90;91.80;;;;;;5105174;28;20455;-63
2021/01/18 11:59:40;;;;;;;10.45;2.90;;;7.00;91.80;;;;;;5110185;28;20024;-62
2021/01/18 12:02:06;;;;;;;5.60;2.40;;;7.00;91.80;;;;;;5112267;28;20028;-62
2021/01/18 12:04:32;;;;;;;10.93;2.75;;;7.00;91.70;;;;;;5103975;28;20026;-63
2021/01/18 12:06:58;;;;;;;12.23;2.70;;;7.00;91.70;;;;;;5098539;28;20024;-62
2021/01/18 12:09:24;;;;;;;10.93;2.28;;;7.00;91.70;;;;;;5113348;28;20506;-62
2021/01/18 12:11:49;;;;;;;11.32;2.55;;;7.10;91.70;;;;;;5109811;28;20379;-61
2021/01/18 12:14:15;;;;;;;15.02;3.00;;;7.10;91.80;;;;;;5105887;28;20426;-61
2021/01/18 12:16:41;;;;;;;17.98;3.05;;;7.10;91.80;;;;;;5104527;28;20054;-62
2021/01/18 12:19:07;;;;;;;16.77;3.00;;;7.10;91.80;;;;;;5109017;28;20032;-65
2021/01/18 12:21:41;;;;;;;10.40;2.85;;;7.10;91.80;;;;;;5100339;28;20078;-64
2021/01/18 12:24:07;;;;;;;13.68;3.03;;;7.00;91.80;;;;;;5094363;28;20032;-64
2021/01/18 12:26:32;;;;;;;21.25;3.33;;;7.00;91.80;;;;;;5094589;28;20419;-64
2021/01/18 12:28:58;;;;;;;13.35;2.60;;;7.00;91.90;;;;;;5099443;28;20049;-64
2021/01/18 12:31:24;;;;;;;14.93;3.55;;;7.00;91.90;;;;;;5102713;28;20040;-64
2021/01/18 12:33:49;;;;;;;9.70;3.08;;;7.10;92.00;;;;;;5093890;28;20050;-64
2021/01/18 12:36:15;;;;;;;12.68;3.00;;;7.10;92.00;;;;;;5093883;28;20135;-64
2021/01/18 12:38:41;;;;;;;13.57;2.80;;;7.10;91.90;;;;;;5094583;28;20052;-64
2021/01/18 12:41:07;;;;;;;17.73;3.40;;;7.10;91.90;;;;;;5094269;28;20065;-63
2021/01/18 12:43:33;;;;;;;11.18;2.47;;;7.20;91.90;;;;;;5093633;28;20155;-64
2021/01/18 12:46:00;;;;;;;14.63;3.00;;;7.10;91.90;;;;;;5094099;28;20154;-64
2021/01/18 12:48:26;;;;;;;18.42;3.33;;;7.20;91.90;;;;;;5110737;28;20027;-64
2021/01/18 12:50:52;;;;;;;12.13;2.83;;;7.20;91.90;;;;;;5097056;28;20123;-64
2021/01/18 12:56:02;;;;;;;15.10;3.45;;;7.20;91.80;;;;;;5093728;28;20032;-64
2021/01/18 12:58:27;;;;;;;8.32;2.78;;;7.20;91.90;;;;;;5094795;28;20031;-64
2021/01/18 13:00:53;;;;;;;9.75;2.50;;;7.20;91.80;;;;;;5107319;28;20028;-64
2021/01/18 13:03:19;;;;;;;16.17;3.13;;;7.30;91.80;;;;;;5112531;28;20031;-64
2021/01/18 13:05:45;;;;;;;11.23;2.90;;;7.30;91.80;;;;;;5112675;28;20438;-64
2021/01/18 13:08:11;;;;;;;16.08;2.20;;;7.40;91.70;;;;;;5109904;28;20098;-64
2021/01/18 13:10:37;;;;;;;15.95;2.25;;;7.40;91.60;;;;;;5098956;28;20034;-64
2021/01/18 13:13:03;;;;;;;9.52;2.53;;;7.40;91.60;;;;;;5106009;28;20047;-64